createdAt,value
2023-04-29T04:00:56.258Z,14.70
2023-04-29T04:03:26.030Z,14.60
2023-04-29T04:05:53.894Z,14.60
2023-04-29T04:08:21.865Z,14.60
2023-04-29T04:10:49.623Z,14.50
2023-04-29T04:13:17.404Z,14.40
2023-04-29T04:15:51.024Z,14.40
2023-04-29T04:18:20.236Z,14.40
2023-04-29T04:20:48.198Z,14.40
2023-04-29T04:23:16.315Z,14.30
2023-04-29T04:25:46.863Z,14.30
2023-04-29T04:28:14.813Z,14.30
2023-04-29T04:30:42.906Z,14.30
2023-04-29T04:33:10.860Z,14.20
2023-04-29T04:35:39.928Z,14.20
2023-04-29T04:38:07.789Z,14.20
2023-04-29T04:40:35.677Z,14.20
2023-04-29T04:43:03.445Z,14.20
2023-04-29T04:45:31.243Z,14.10
2023-04-29T04:47:59.160Z,14.10
2023-04-29T04:50:28.888Z,14.10
2023-04-29T04:52:58.276Z,14.10
2023-04-29T04:55:26.355Z,14.10
2023-04-29T04:57:54.129Z,14.20
2023-04-29T05:00:22.031Z,14.20
2023-04-29T05:02:49.930Z,14.20
2023-04-29T05:05:17.888Z,14.30
2023-04-29T05:07:45.723Z,14.30
2023-04-29T05:12:42.898Z,14.30
2023-04-29T05:15:11.314Z,14.30
2023-04-29T05:17:39.156Z,14.40
2023-04-29T05:20:08.340Z,14.40
2023-04-29T05:22:36.089Z,14.30
2023-04-29T05:25:03.851Z,14.40
2023-04-29T05:27:33.588Z,14.40
2023-04-29T05:30:01.753Z,14.50
2023-04-29T05:32:29.732Z,14.50
2023-04-29T05:34:57.643Z,14.50
2023-04-29T05:37:30.579Z,14.50
2023-04-29T05:39:58.401Z,14.50
2023-04-29T05:42:26.354Z,14.50
2023-04-29T05:44:55.539Z,14.40
2023-04-29T05:47:23.308Z,14.50
2023-04-29T05:49:51.569Z,14.40
2023-04-29T05:52:19.880Z,14.30
2023-04-29T05:54:47.667Z,14.30
2023-04-29T05:57:15.602Z,14.30
2023-04-29T05:59:43.613Z,14.30
2023-04-29T06:02:12.841Z,14.30
2023-04-29T06:04:41.384Z,14.30
2023-04-29T06:09:38.396Z,14.40
2023-04-29T06:12:06.932Z,12.80
2023-04-29T06:14:34.810Z,14.40
2023-04-29T06:17:03.745Z,14.40
2023-04-29T06:19:33.914Z,14.40
2023-04-29T06:22:01.670Z,14.40
2023-04-29T06:24:29.555Z,14.30
2023-04-29T06:26:57.315Z,14.40
2023-04-29T06:29:25.119Z,14.30
2023-04-29T06:31:53.147Z,14.30
2023-04-29T06:34:20.948Z,14.40
2023-04-29T06:36:50.156Z,14.40
2023-04-29T06:39:18.128Z,14.40
2023-04-29T06:41:45.851Z,14.50
2023-04-29T06:44:13.690Z,14.50
2023-04-29T06:46:41.475Z,14.60
2023-04-29T06:49:10.057Z,14.60
2023-04-29T06:51:38.526Z,14.60
2023-04-29T06:54:08.539Z,14.60
2023-04-29T06:56:36.426Z,14.60
2023-04-29T06:59:04.424Z,14.70
2023-04-29T07:01:32.371Z,14.80
2023-04-29T07:06:30.826Z,14.80
2023-04-29T07:08:58.598Z,14.80
2023-04-29T07:11:28.465Z,14.70
2023-04-29T07:13:56.334Z,14.70
2023-04-29T07:16:26.548Z,14.70
2023-04-29T07:18:54.702Z,14.80
2023-04-29T07:21:22.506Z,14.80
2023-04-29T07:26:19.276Z,14.80
2023-04-29T07:28:49.676Z,14.80
2023-04-29T07:31:17.759Z,14.70
2023-04-29T07:33:46.440Z,14.70
2023-04-29T07:36:14.276Z,14.60
2023-04-29T07:38:42.130Z,14.60
2023-04-29T07:41:10.039Z,14.60
2023-04-29T07:43:42.447Z,14.60
2023-04-29T07:48:40.639Z,14.70
2023-04-29T07:51:13.406Z,14.70
2023-04-29T07:53:41.509Z,14.60
2023-04-29T07:56:10.183Z,14.50
2023-04-29T07:58:37.967Z,14.50
2023-04-29T08:01:12.487Z,14.50
2023-04-29T08:03:42.843Z,14.50
2023-04-29T08:06:10.869Z,14.50
2023-04-29T08:08:38.751Z,14.50
2023-04-29T08:13:35.144Z,14.50
2023-04-29T08:16:05.934Z,14.50
2023-04-29T08:18:36.944Z,14.50
2023-04-29T08:21:07.428Z,14.40
2023-04-29T08:23:35.923Z,14.40
2023-04-29T08:26:03.771Z,14.50
2023-04-29T08:28:31.515Z,14.50
2023-04-29T08:31:00.346Z,14.50
2023-04-29T08:33:28.588Z,14.60
2023-04-29T08:36:04.653Z,14.60
2023-04-29T08:38:34.856Z,14.70
2023-04-29T08:46:05.015Z,11.20
2023-04-29T08:48:33.526Z,14.60
2023-04-29T08:51:03.754Z,14.60
2023-04-29T08:53:31.659Z,14.60
2023-04-29T08:56:04.679Z,14.60
2023-04-29T08:58:40.147Z,14.70
2023-04-29T09:01:11.199Z,14.60
2023-04-29T09:03:48.376Z,14.40
2023-04-29T09:06:23.679Z,14.30
2023-04-29T09:16:32.374Z,14.10
2023-04-29T09:32:20.585Z,14.50
2023-04-29T09:37:29.935Z,14.20
2023-04-29T09:45:14.716Z,14.20
2023-04-29T09:47:43.468Z,14.00
2023-04-29T09:50:18.782Z,13.90
2023-04-29T09:57:52.287Z,13.80
2023-04-29T10:00:25.749Z,13.80
2023-04-29T10:02:57.578Z,13.90
2023-04-29T10:05:32.376Z,13.90
2023-04-29T10:08:04.749Z,14.00
2023-04-29T10:10:38.711Z,14.10
2023-04-29T10:13:06.796Z,14.00
2023-04-29T10:15:42.950Z,14.10
2023-04-29T10:23:25.499Z,14.20
2023-04-29T10:25:54.538Z,14.20
2023-04-29T10:28:32.676Z,14.20
2023-04-29T10:31:07.503Z,14.30
2023-04-29T10:33:37.529Z,14.30
2023-04-29T10:36:06.129Z,14.50
2023-04-29T10:38:41.597Z,14.50
2023-04-29T10:41:15.406Z,14.50
2023-04-29T10:43:43.383Z,14.50
2023-04-29T10:46:29.213Z,14.50
2023-04-29T10:49:01.019Z,14.50
2023-04-29T10:51:33.719Z,14.60
2023-04-29T10:54:08.984Z,14.60
2023-04-29T10:56:41.659Z,14.70
2023-04-29T10:59:14.543Z,14.90
2023-04-29T11:01:47.688Z,15.00
2023-04-29T11:04:16.068Z,15.00
2023-04-29T11:06:47.357Z,15.10
2023-04-29T11:09:21.237Z,14.90
2023-04-29T11:11:58.117Z,14.80
2023-04-29T11:14:27.806Z,14.80
2023-04-29T11:16:59.869Z,14.90
2023-04-29T11:19:32.836Z,14.80
2023-04-29T11:22:13.993Z,14.80
2023-04-29T11:24:54.838Z,14.90
2023-04-29T11:27:26.240Z,14.90
2023-04-29T11:32:26.909Z,15.00
2023-04-29T11:34:55.226Z,15.10
2023-04-29T11:37:25.405Z,15.00
2023-04-29T11:40:00.409Z,15.10
2023-04-29T11:42:28.622Z,15.20
2023-04-29T11:44:59.382Z,15.30
2023-04-29T11:47:29.533Z,15.30
2023-04-29T11:50:04.866Z,15.30
2023-04-29T11:52:33.143Z,15.40
2023-04-29T11:55:03.069Z,15.40
2023-04-29T11:57:31.282Z,17.70
2023-04-29T12:02:31.555Z,15.40
2023-04-29T12:05:01.134Z,15.40
2023-04-29T12:07:29.507Z,15.20
2023-04-29T12:09:57.858Z,15.10
2023-04-29T12:14:56.996Z,15.10
2023-04-29T12:17:25.739Z,15.20
2023-04-29T12:19:53.760Z,15.30
2023-04-29T12:22:21.687Z,15.40
2023-04-29T12:24:50.921Z,15.40
2023-04-29T12:27:18.826Z,15.40
2023-04-29T12:29:47.997Z,15.50
2023-04-29T12:32:18.904Z,15.50
2023-04-29T12:34:47.540Z,15.60
2023-04-29T12:37:16.690Z,15.60
2023-04-29T12:39:44.809Z,15.60
2023-04-29T12:42:17.291Z,15.60
2023-04-29T12:44:48.160Z,15.60
2023-04-29T12:49:46.779Z,15.70
2023-04-29T12:52:15.300Z,15.80
2023-04-29T12:54:44.239Z,15.80
2023-04-29T12:57:12.904Z,15.90
2023-04-29T12:59:41.190Z,15.90
2023-04-29T13:02:10.759Z,15.90
2023-04-29T13:04:40.048Z,15.90
2023-04-29T13:07:08.149Z,16.00
2023-04-29T13:09:37.942Z,16.00
2023-04-29T13:12:09.186Z,16.00
2023-04-29T13:14:37.485Z,16.10
2023-04-29T13:17:06.346Z,16.10
2023-04-29T13:22:07.558Z,16.10
2023-04-29T13:24:36.584Z,16.10
2023-04-29T13:27:04.962Z,16.00
2023-04-29T13:29:32.981Z,16.00
2023-04-29T13:32:00.851Z,15.90
2023-04-29T13:34:28.978Z,15.90
2023-04-29T13:36:58.142Z,15.90
2023-04-29T13:39:25.991Z,15.90
2023-04-29T13:41:58.511Z,15.80
2023-04-29T13:44:34.167Z,15.80
2023-04-29T13:47:14.304Z,15.80
2023-04-29T13:50:16.784Z,15.80
2023-04-29T13:55:58.702Z,15.90
2023-04-29T13:58:37.839Z,16.00
2023-04-29T14:03:12.289Z,16.00
2023-04-29T14:05:40.318Z,16.10
2023-04-29T14:08:09.573Z,16.10
2023-04-29T14:13:07.019Z,16.20
2023-04-29T14:15:34.901Z,16.20
2023-04-29T14:18:02.898Z,16.10
2023-04-29T14:20:30.747Z,16.10
2023-04-29T14:22:58.525Z,16.10
2023-04-29T14:25:28.885Z,16.10
2023-04-29T14:27:57.441Z,16.10
2023-04-29T14:30:25.544Z,16.00
2023-04-29T14:32:53.402Z,16.00
2023-04-29T14:35:21.536Z,16.00
2023-04-29T14:37:50.428Z,15.90
2023-04-29T14:40:18.311Z,15.90
2023-04-29T14:42:47.501Z,15.90
2023-04-29T14:45:15.648Z,15.90
2023-04-29T14:47:43.469Z,15.90
2023-04-29T14:50:11.502Z,15.90
2023-04-29T14:52:39.428Z,15.90
2023-04-29T14:55:07.812Z,15.90
2023-04-29T14:57:35.800Z,15.90
2023-04-29T15:00:05.765Z,15.90
2023-04-29T15:02:33.819Z,15.90
2023-04-29T15:05:04.013Z,15.80
2023-04-29T15:07:32.882Z,15.80
2023-04-29T15:12:29.134Z,15.70
2023-04-29T15:14:56.949Z,15.50
2023-04-29T15:17:26.302Z,15.50
2023-04-29T15:19:54.189Z,15.40
2023-04-29T15:22:22.086Z,15.30
2023-04-29T15:24:52.098Z,15.30
2023-04-29T15:27:20.006Z,15.20
2023-04-29T15:29:47.885Z,15.20
2023-04-29T15:34:45.836Z,15.10
2023-04-29T15:37:13.927Z,15.10
2023-04-29T15:39:41.719Z,15.10
2023-04-29T15:42:10.199Z,15.00
2023-04-29T15:44:38.479Z,15.00
2023-04-29T15:47:06.544Z,14.90
2023-04-29T15:49:34.335Z,14.90
2023-04-29T15:54:31.840Z,14.80
2023-04-29T15:56:59.605Z,14.80
2023-04-29T15:59:27.537Z,14.80
2023-04-29T16:01:55.340Z,14.80
2023-04-29T16:04:23.157Z,14.70
2023-04-29T16:06:53.091Z,14.70
2023-04-29T16:09:22.413Z,11.60
2023-04-29T16:11:53.004Z,14.60
2023-04-29T16:14:20.871Z,14.60
2023-04-29T16:16:48.790Z,14.60
2023-04-29T16:19:17.105Z,14.60
2023-04-29T16:21:45.765Z,14.60
2023-04-29T16:24:13.707Z,14.50
2023-04-29T16:26:43.066Z,14.50
2023-04-29T16:29:12.345Z,14.50
2023-04-29T16:31:40.508Z,14.50
2023-04-29T16:34:08.380Z,14.50
2023-04-29T16:36:37.442Z,14.50
2023-04-29T16:39:05.376Z,14.50
2023-04-29T16:41:35.202Z,14.50
2023-04-29T16:44:04.672Z,14.60
2023-04-29T16:46:33.471Z,14.50
2023-04-29T16:49:01.381Z,14.60
2023-04-29T16:51:29.681Z,14.60
2023-04-29T16:53:57.467Z,14.60
2023-04-29T16:56:25.734Z,14.60
2023-04-29T16:58:53.689Z,14.50
2023-04-29T17:01:23.043Z,14.50
2023-04-29T17:03:51.524Z,14.50
2023-04-29T17:06:19.651Z,14.60
2023-04-29T17:08:50.054Z,14.60
2023-04-29T17:11:19.214Z,14.60
2023-04-29T17:13:46.975Z,14.60
2023-04-29T17:16:15.030Z,14.50
2023-04-29T17:18:44.218Z,14.50
2023-04-29T17:21:12.107Z,14.50
2023-04-29T17:23:39.863Z,14.50
2023-04-29T17:26:08.082Z,14.40
2023-04-29T17:28:35.942Z,14.40
2023-04-29T17:31:03.898Z,14.40
2023-04-29T17:33:35.293Z,14.40
2023-04-29T17:36:05.524Z,14.30
2023-04-29T17:38:34.101Z,14.30
2023-04-29T17:41:02.717Z,14.40
2023-04-29T17:43:33.082Z,14.30
2023-04-29T17:46:00.991Z,14.40
2023-04-29T17:48:28.906Z,14.40
2023-04-29T17:50:56.870Z,14.30
2023-04-29T17:55:55.259Z,14.30
2023-04-29T17:58:23.008Z,14.30
2023-04-29T18:00:52.230Z,14.30
2023-04-29T18:03:20.137Z,14.30
2023-04-29T18:05:48.338Z,14.20
2023-04-29T18:08:16.117Z,14.20
2023-04-29T18:10:45.421Z,14.20
2023-04-29T18:13:13.265Z,14.20
2023-04-29T18:15:41.087Z,14.20
2023-04-29T18:18:08.936Z,14.20
2023-04-29T18:20:36.858Z,14.20
2023-04-29T18:23:04.745Z,14.20
2023-04-29T18:25:32.478Z,14.20
2023-04-29T18:28:18.880Z,14.20
2023-04-29T18:30:50.234Z,14.20
2023-04-29T18:33:18.277Z,14.20
2023-04-29T18:35:46.237Z,14.20
2023-04-29T18:38:17.053Z,14.20
2023-04-29T18:40:45.255Z,14.20
2023-04-29T18:43:17.824Z,14.20
2023-04-29T18:46:10.736Z,14.20
2023-04-29T18:56:56.495Z,14.20
2023-04-29T19:01:57.601Z,14.20
2023-04-29T19:04:25.410Z,14.20
2023-04-29T19:06:53.250Z,14.20
2023-04-29T19:09:21.075Z,14.10
2023-04-29T19:11:48.894Z,14.20
2023-04-29T19:14:16.617Z,14.10
2023-04-29T19:27:53.633Z,14.10
2023-04-29T19:35:36.302Z,14.00
2023-04-29T19:40:32.398Z,14.10
2023-04-29T19:43:00.619Z,14.00
2023-04-29T19:45:37.724Z,14.10
2023-04-29T19:48:09.246Z,14.10
2023-04-29T19:53:28.762Z,14.00
2023-04-29T19:56:01.719Z,14.00
2023-04-29T19:58:29.582Z,14.00
2023-04-29T20:03:30.707Z,14.10
2023-04-29T20:14:00.936Z,14.00
2023-04-29T20:16:30.017Z,14.00
2023-04-29T20:18:57.869Z,14.00
2023-04-29T20:21:27.576Z,14.00
2023-04-29T20:24:02.691Z,14.00
2023-04-29T20:26:30.468Z,14.00
2023-04-29T20:28:58.256Z,14.00
2023-04-29T20:34:00.260Z,14.00
2023-04-29T20:36:30.101Z,14.00
2023-04-29T20:39:00.985Z,13.90
2023-04-29T20:41:29.116Z,13.80
2023-04-29T20:43:59.095Z,13.90
2023-04-29T20:51:24.696Z,13.80
2023-04-29T20:53:53.809Z,13.80
2023-04-29T20:56:27.780Z,13.80
2023-04-29T21:03:54.126Z,13.80
2023-04-29T21:06:21.962Z,13.70
2023-04-29T21:08:49.882Z,13.70
2023-04-29T21:11:19.017Z,13.70
2023-04-29T21:13:49.878Z,13.70
2023-04-29T21:16:17.908Z,13.70
2023-04-29T21:18:46.422Z,13.60
2023-04-29T21:21:14.543Z,13.70
2023-04-29T21:26:14.908Z,13.00
2023-04-29T21:31:16.315Z,13.60
2023-04-29T21:33:44.602Z,13.60
2023-04-29T21:36:12.899Z,13.70
2023-04-29T21:38:43.550Z,13.70
2023-04-29T21:41:19.487Z,13.60
2023-04-29T21:43:49.383Z,13.70
2023-04-29T21:48:45.572Z,13.70
2023-04-29T21:51:14.523Z,13.70
2023-04-29T21:53:42.679Z,13.70
2023-04-29T21:56:10.533Z,13.60
2023-04-29T21:58:38.588Z,13.60
2023-04-29T22:01:26.269Z,13.60
2023-04-29T22:03:54.249Z,13.60
2023-04-29T22:06:22.419Z,13.60
2023-04-29T22:08:50.613Z,13.60
2023-04-29T22:11:21.625Z,13.70
2023-04-29T22:13:49.632Z,13.70
2023-04-29T22:16:19.640Z,13.70
2023-04-29T22:18:48.245Z,13.70
2023-04-29T22:21:16.884Z,13.70
2023-04-29T22:26:13.550Z,13.70
2023-04-29T22:28:41.311Z,13.70
2023-04-29T22:31:09.099Z,13.60
2023-04-29T22:33:38.320Z,13.60
2023-04-29T22:36:06.399Z,13.70
2023-04-29T22:38:34.977Z,13.60
2023-04-29T22:41:03.185Z,13.60
2023-04-29T22:43:31.185Z,13.60
2023-04-29T22:45:59.155Z,13.60
2023-04-29T22:48:28.059Z,13.60
2023-04-29T22:50:59.720Z,13.60
2023-04-29T22:53:27.787Z,13.60
2023-04-29T22:55:57.806Z,13.60
2023-04-29T22:58:26.264Z,13.60
2023-04-29T23:00:56.396Z,13.60
2023-04-29T23:03:25.059Z,13.60
2023-04-29T23:05:54.950Z,13.60
2023-04-29T23:08:24.151Z,13.60
2023-04-29T23:10:51.951Z,13.50
2023-04-29T23:13:20.033Z,13.50
2023-04-29T23:15:47.808Z,13.50
2023-04-29T23:18:15.689Z,13.50
2023-04-29T23:20:46.969Z,13.40
2023-04-29T23:23:14.839Z,13.50
2023-04-29T23:25:45.206Z,13.50
2023-04-29T23:28:13.085Z,13.50
2023-04-29T23:30:40.918Z,13.40
2023-04-29T23:33:09.054Z,13.40
2023-04-29T23:35:36.944Z,13.40
2023-04-29T23:38:04.800Z,13.40
2023-04-29T23:40:32.721Z,13.30
2023-04-29T23:43:01.830Z,13.30
2023-04-29T23:45:29.666Z,13.30
2023-04-29T23:47:57.445Z,13.30
2023-04-29T23:50:25.371Z,13.30
2023-04-29T23:52:53.118Z,13.30
2023-04-29T23:55:21.244Z,13.30
2023-04-29T23:57:49.057Z,13.20
